Redstar, Mississippi
Current Conditions -  °F | °C
As of 6:53 AM on Monday 22 Dec 2014 (Local Time) from KMCB Reporting Station
Moderate Fog Moderate Fog  
Wind Chill: 12°   Ceiling: 200
Heat Index: 12°   Visibility: 0.25mi
Dew Point: 12°   Wind: 8mph
Humidity: 97%   Direction: 140°SE
Pressure: 29.84"   Gusts: NA
Location:  31.5898°N, 90.4722°W
Report Text: KMCB 221253Z AUTO 14007KT 1/4SM FG VV002 12/12 A2984 RMK AO2 SLP103 T01220117 $
Loading
Personal Weather Stations






























Interactive Weather Map New forecast layout! Learn more

10-Day Weather Forecast

Advertisements
Track Severe Weather on mobile